sensor_id;sensor_type;location;lat;lon;timestamp;temperature;humidity
71088;SHT31;58747;50.674;4.616;2022-12-10T00:01:34;-1.30;95.18
71088;SHT31;58747;50.674;4.616;2022-12-10T00:04:00;-1.31;95.65
71088;SHT31;58747;50.674;4.616;2022-12-10T00:06:28;-1.27;95.72
71088;SHT31;58747;50.674;4.616;2022-12-10T00:08:54;-1.25;95.52
71088;SHT31;58747;50.674;4.616;2022-12-10T00:11:21;-1.28;95.52
71088;SHT31;58747;50.674;4.616;2022-12-10T00:13:47;-1.30;95.47
71088;SHT31;58747;50.674;4.616;2022-12-10T00:16:19;-1.34;95.48
71088;SHT31;58747;50.674;4.616;2022-12-10T00:18:45;-1.31;95.91
71088;SHT31;58747;50.674;4.616;2022-12-10T00:21:13;-1.42;95.60
71088;SHT31;58747;50.674;4.616;2022-12-10T00:23:39;-1.38;95.96
71088;SHT31;58747;50.674;4.616;2022-12-10T00:26:17;-1.32;96.16
71088;SHT31;58747;50.674;4.616;2022-12-10T00:28:43;-1.31;96.05
71088;SHT31;58747;50.674;4.616;2022-12-10T00:31:11;-1.21;95.69
71088;SHT31;58747;50.674;4.616;2022-12-10T00:33:37;-1.24;95.91
71088;SHT31;58747;50.674;4.616;2022-12-10T00:36:07;-1.21;95.68
71088;SHT31;58747;50.674;4.616;2022-12-10T00:38:34;-1.19;95.89
71088;SHT31;58747;50.674;4.616;2022-12-10T00:40:59;-1.25;95.91
71088;SHT31;58747;50.674;4.616;2022-12-10T00:43:25;-1.28;95.59
71088;SHT31;58747;50.674;4.616;2022-12-10T00:45:50;-1.31;95.65
71088;SHT31;58747;50.674;4.616;2022-12-10T00:48:16;-1.39;95.83
71088;SHT31;58747;50.674;4.616;2022-12-10T00:50:41;-1.45;96.03
71088;SHT31;58747;50.674;4.616;2022-12-10T00:53:06;-1.44;96.45
71088;SHT31;58747;50.674;4.616;2022-12-10T00:55:32;-1.41;96.68
71088;SHT31;58747;50.674;4.616;2022-12-10T00:57:57;-1.35;96.26
71088;SHT31;58747;50.674;4.616;2022-12-10T01:00:22;-1.31;95.90
71088;SHT31;58747;50.674;4.616;2022-12-10T01:02:49;-1.30;95.95
71088;SHT31;58747;50.674;4.616;2022-12-10T01:05:14;-1.25;96.04
71088;SHT31;58747;50.674;4.616;2022-12-10T01:07:40;-1.32;96.05
71088;SHT31;58747;50.674;4.616;2022-12-10T01:10:05;-1.34;96.01
71088;SHT31;58747;50.674;4.616;2022-12-10T01:12:30;-1.24;96.21
71088;SHT31;58747;50.674;4.616;2022-12-10T01:14:56;-1.25;96.07
71088;SHT31;58747;50.674;4.616;2022-12-10T01:17:21;-1.27;95.85
71088;SHT31;58747;50.674;4.616;2022-12-10T01:19:46;-1.32;95.92
71088;SHT31;58747;50.674;4.616;2022-12-10T01:22:12;-1.38;96.08
71088;SHT31;58747;50.674;4.616;2022-12-10T01:24:37;-1.34;96.03
71088;SHT31;58747;50.674;4.616;2022-12-10T01:27:03;-1.45;95.77
71088;SHT31;58747;50.674;4.616;2022-12-10T01:29:28;-1.48;96.17
71088;SHT31;58747;50.674;4.616;2022-12-10T01:31:55;-1.45;96.12
71088;SHT31;58747;50.674;4.616;2022-12-10T01:34:21;-1.39;96.03
71088;SHT31;58747;50.674;4.616;2022-12-10T01:36:50;-1.34;96.11
71088;SHT31;58747;50.674;4.616;2022-12-10T01:39:17;-1.34;95.99
71088;SHT31;58747;50.674;4.616;2022-12-10T01:46:38;-1.41;95.61
71088;SHT31;58747;50.674;4.616;2022-12-10T01:49:07;-1.39;95.68
71088;SHT31;58747;50.674;4.616;2022-12-10T01:51:36;-1.44;96.48
71088;SHT31;58747;50.674;4.616;2022-12-10T01:54:04;-1.44;96.19
71088;SHT31;58747;50.674;4.616;2022-12-10T01:56:31;-1.49;95.97
71088;SHT31;58747;50.674;4.616;2022-12-10T01:59:00;-1.55;96.42
71088;SHT31;58747;50.674;4.616;2022-12-10T02:01:36;-1.49;96.37
71088;SHT31;58747;50.674;4.616;2022-12-10T02:06:44;-1.48;96.05
71088;SHT31;58747;50.674;4.616;2022-12-10T02:09:23;-1.55;95.49
71088;SHT31;58747;50.674;4.616;2022-12-10T02:12:17;-1.51;95.90
71088;SHT31;58747;50.674;4.616;2022-12-10T02:17:27;-1.41;96.09
71088;SHT31;58747;50.674;4.616;2022-12-10T02:22:32;-1.41;95.96
71088;SHT31;58747;50.674;4.616;2022-12-10T02:24:59;-1.37;95.98
71088;SHT31;58747;50.674;4.616;2022-12-10T02:30:10;-1.38;95.61
71088;SHT31;58747;50.674;4.616;2022-12-10T02:32:41;-1.54;95.57
71088;SHT31;58747;50.674;4.616;2022-12-10T02:35:16;-1.51;96.02
71088;SHT31;58747;50.674;4.616;2022-12-10T02:37:49;-1.45;95.68
71088;SHT31;58747;50.674;4.616;2022-12-10T02:40:19;-1.42;95.59
71088;SHT31;58747;50.674;4.616;2022-12-10T02:42:50;-1.39;95.69
71088;SHT31;58747;50.674;4.616;2022-12-10T02:45:17;-1.45;95.55
71088;SHT31;58747;50.674;4.616;2022-12-10T02:47:43;-1.44;95.53
71088;SHT31;58747;50.674;4.616;2022-12-10T02:50:10;-1.42;95.58
71088;SHT31;58747;50.674;4.616;2022-12-10T02:52:37;-1.44;95.80
71088;SHT31;58747;50.674;4.616;2022-12-10T02:55:03;-1.41;95.40
71088;SHT31;58747;50.674;4.616;2022-12-10T03:00:07;-1.41;95.55
71088;SHT31;58747;50.674;4.616;2022-12-10T03:13:15;-1.54;95.78
71088;SHT31;58747;50.674;4.616;2022-12-10T03:15:42;-1.54;95.73
71088;SHT31;58747;50.674;4.616;2022-12-10T03:18:10;-1.44;95.80
71088;SHT31;58747;50.674;4.616;2022-12-10T03:20:39;-1.44;95.68
71088;SHT31;58747;50.674;4.616;2022-12-10T03:23:09;-1.42;95.77
71088;SHT31;58747;50.674;4.616;2022-12-10T03:25:36;-1.41;95.62
71088;SHT31;58747;50.674;4.616;2022-12-10T03:28:03;-1.45;95.77
71088;SHT31;58747;50.674;4.616;2022-12-10T03:30:31;-1.49;95.85
71088;SHT31;58747;50.674;4.616;2022-12-10T03:32:57;-1.54;95.89
71088;SHT31;58747;50.674;4.616;2022-12-10T03:35:23;-1.51;95.87
71088;SHT31;58747;50.674;4.616;2022-12-10T03:37:50;-1.46;96.06
71088;SHT31;58747;50.674;4.616;2022-12-10T03:40:18;-1.46;95.85
71088;SHT31;58747;50.674;4.616;2022-12-10T03:42:45;-1.38;95.96
71088;SHT31;58747;50.674;4.616;2022-12-10T03:45:10;-1.41;95.87
71088;SHT31;58747;50.674;4.616;2022-12-10T03:47:36;-1.44;95.76
71088;SHT31;58747;50.674;4.616;2022-12-10T03:50:01;-1.48;96.12
71088;SHT31;58747;50.674;4.616;2022-12-10T03:52:26;-1.49;96.06
71088;SHT31;58747;50.674;4.616;2022-12-10T03:54:52;-1.45;96.24
71088;SHT31;58747;50.674;4.616;2022-12-10T03:57:17;-1.44;96.26
71088;SHT31;58747;50.674;4.616;2022-12-10T03:59:43;-1.41;96.23
71088;SHT31;58747;50.674;4.616;2022-12-10T04:02:08;-1.44;96.07
71088;SHT31;58747;50.674;4.616;2022-12-10T04:04:33;-1.38;96.02
71088;SHT31;58747;50.674;4.616;2022-12-10T04:06:59;-1.42;95.95
71088;SHT31;58747;50.674;4.616;2022-12-10T04:09:24;-1.44;96.07
71088;SHT31;58747;50.674;4.616;2022-12-10T04:11:50;-1.45;96.08
71088;SHT31;58747;50.674;4.616;2022-12-10T04:14:15;-1.46;96.10
71088;SHT31;58747;50.674;4.616;2022-12-10T04:16:59;-1.42;96.02
71088;SHT31;58747;50.674;4.616;2022-12-10T04:19:25;-1.41;96.16
71088;SHT31;58747;50.674;4.616;2022-12-10T04:21:51;-1.41;96.37
71088;SHT31;58747;50.674;4.616;2022-12-10T04:24:36;-1.42;96.32
71088;SHT31;58747;50.674;4.616;2022-12-10T04:27:23;-1.44;96.22
71088;SHT31;58747;50.674;4.616;2022-12-10T04:29:49;-1.39;96.33
71088;SHT31;58747;50.674;4.616;2022-12-10T04:32:15;-1.38;96.25
71088;SHT31;58747;50.674;4.616;2022-12-10T04:34:40;-1.44;96.05
71088;SHT31;58747;50.674;4.616;2022-12-10T04:37:06;-1.46;96.35
71088;SHT31;58747;50.674;4.616;2022-12-10T04:39:32;-1.38;96.28
71088;SHT31;58747;50.674;4.616;2022-12-10T04:41:59;-1.38;96.18
71088;SHT31;58747;50.674;4.616;2022-12-10T04:44:25;-1.34;96.07
71088;SHT31;58747;50.674;4.616;2022-12-10T04:46:50;-1.37;96.26
71088;SHT31;58747;50.674;4.616;2022-12-10T04:49:16;-1.37;96.13
71088;SHT31;58747;50.674;4.616;2022-12-10T04:51:41;-1.34;96.18
71088;SHT31;58747;50.674;4.616;2022-12-10T04:54:07;-1.41;96.64
71088;SHT31;58747;50.674;4.616;2022-12-10T04:56:33;-1.42;96.52
71088;SHT31;58747;50.674;4.616;2022-12-10T04:58:59;-1.34;96.33
71088;SHT31;58747;50.674;4.616;2022-12-10T05:01:26;-1.39;96.61
71088;SHT31;58747;50.674;4.616;2022-12-10T05:03:51;-1.37;96.50
71088;SHT31;58747;50.674;4.616;2022-12-10T05:06:17;-1.35;96.32
71088;SHT31;58747;50.674;4.616;2022-12-10T05:08:44;-1.42;96.41
71088;SHT31;58747;50.674;4.616;2022-12-10T05:11:14;-1.42;96.40
71088;SHT31;58747;50.674;4.616;2022-12-10T05:13:40;-1.41;96.53
71088;SHT31;58747;50.674;4.616;2022-12-10T05:16:08;-1.42;96.62
71088;SHT31;58747;50.674;4.616;2022-12-10T05:18:35;-1.45;96.73
71088;SHT31;58747;50.674;4.616;2022-12-10T05:21:01;-1.39;96.62
71088;SHT31;58747;50.674;4.616;2022-12-10T05:23:27;-1.41;96.69
71088;SHT31;58747;50.674;4.616;2022-12-10T05:28:53;-1.46;96.25
71088;SHT31;58747;50.674;4.616;2022-12-10T05:33:47;-1.51;96.37
71088;SHT31;58747;50.674;4.616;2022-12-10T05:36:14;-1.46;96.28
71088;SHT31;58747;50.674;4.616;2022-12-10T05:38:40;-1.46;96.13
71088;SHT31;58747;50.674;4.616;2022-12-10T05:41:21;-1.62;96.61
71088;SHT31;58747;50.674;4.616;2022-12-10T05:43:47;-1.58;96.84
71088;SHT31;58747;50.674;4.616;2022-12-10T05:46:15;-1.52;96.78
71088;SHT31;58747;50.674;4.616;2022-12-10T05:48:41;-1.45;96.71
71088;SHT31;58747;50.674;4.616;2022-12-10T05:51:09;-1.45;96.53
71088;SHT31;58747;50.674;4.616;2022-12-10T05:53:35;-1.45;96.64
71088;SHT31;58747;50.674;4.616;2022-12-10T05:56:04;-1.45;96.70
71088;SHT31;58747;50.674;4.616;2022-12-10T05:58:30;-1.39;96.87
71088;SHT31;58747;50.674;4.616;2022-12-10T06:00:56;-1.49;96.53
71088;SHT31;58747;50.674;4.616;2022-12-10T06:03:22;-1.44;96.71
71088;SHT31;58747;50.674;4.616;2022-12-10T06:05:48;-1.44;96.45
71088;SHT31;58747;50.674;4.616;2022-12-10T06:08:13;-1.41;96.29
71088;SHT31;58747;50.674;4.616;2022-12-10T06:10:38;-1.49;96.57
71088;SHT31;58747;50.674;4.616;2022-12-10T06:13:04;-1.58;96.60
71088;SHT31;58747;50.674;4.616;2022-12-10T06:15:30;-1.75;97.18
71088;SHT31;58747;50.674;4.616;2022-12-10T06:17:56;-1.72;97.71
71088;SHT31;58747;50.674;4.616;2022-12-10T06:20:23;-1.69;97.65
71088;SHT31;58747;50.674;4.616;2022-12-10T06:22:49;-1.73;97.77
71088;SHT31;58747;50.674;4.616;2022-12-10T06:25:14;-1.77;97.73
71088;SHT31;58747;50.674;4.616;2022-12-10T06:27:39;-1.82;97.95
71088;SHT31;58747;50.674;4.616;2022-12-10T06:30:05;-1.73;98.15
71088;SHT31;58747;50.674;4.616;2022-12-10T06:32:31;-1.70;98.08
71088;SHT31;58747;50.674;4.616;2022-12-10T06:34:56;-1.72;98.11
71088;SHT31;58747;50.674;4.616;2022-12-10T06:37:22;-1.66;98.13
71088;SHT31;58747;50.674;4.616;2022-12-10T06:39:49;-1.65;97.62
71088;SHT31;58747;50.674;4.616;2022-12-10T06:42:14;-1.65;97.47
71088;SHT31;58747;50.674;4.616;2022-12-10T06:44:40;-1.63;97.45
71088;SHT31;58747;50.674;4.616;2022-12-10T06:47:05;-1.58;97.43
71088;SHT31;58747;50.674;4.616;2022-12-10T06:49:30;-1.59;97.15
71088;SHT31;58747;50.674;4.616;2022-12-10T06:51:56;-1.59;97.31
71088;SHT31;58747;50.674;4.616;2022-12-10T06:54:21;-1.56;97.28
71088;SHT31;58747;50.674;4.616;2022-12-10T06:56:46;-1.55;97.13
71088;SHT31;58747;50.674;4.616;2022-12-10T06:59:12;-1.55;97.19
71088;SHT31;58747;50.674;4.616;2022-12-10T07:01:37;-1.58;97.30
71088;SHT31;58747;50.674;4.616;2022-12-10T07:04:03;-1.59;97.46
71088;SHT31;58747;50.674;4.616;2022-12-10T07:06:30;-1.46;98.06
71088;SHT31;58747;50.674;4.616;2022-12-10T07:08:57;-1.49;97.49
71088;SHT31;58747;50.674;4.616;2022-12-10T07:11:23;-1.52;97.30
71088;SHT31;58747;50.674;4.616;2022-12-10T07:13:49;-1.49;97.32
71088;SHT31;58747;50.674;4.616;2022-12-10T07:16:26;-1.54;97.09
71088;SHT31;58747;50.674;4.616;2022-12-10T07:18:53;-1.49;97.34
71088;SHT31;58747;50.674;4.616;2022-12-10T07:21:30;-1.44;97.20
71088;SHT31;58747;50.674;4.616;2022-12-10T07:23:59;-1.49;96.63
71088;SHT31;58747;50.674;4.616;2022-12-10T07:26:25;-1.55;97.03
71088;SHT31;58747;50.674;4.616;2022-12-10T07:28:50;-1.17;98.20
71088;SHT31;58747;50.674;4.616;2022-12-10T07:31:16;-0.72;97.89
71088;SHT31;58747;50.674;4.616;2022-12-10T07:33:41;-0.76;95.53
71088;SHT31;58747;50.674;4.616;2022-12-10T07:36:09;-0.94;94.56
71088;SHT31;58747;50.674;4.616;2022-12-10T07:38:35;-1.12;95.10
71088;SHT31;58747;50.674;4.616;2022-12-10T07:41:12;-1.22;95.72
71088;SHT31;58747;50.674;4.616;2022-12-10T07:43:39;-1.35;95.70
71088;SHT31;58747;50.674;4.616;2022-12-10T07:46:34;-1.58;96.59
71088;SHT31;58747;50.674;4.616;2022-12-10T07:49:01;-1.67;96.95
71088;SHT31;58747;50.674;4.616;2022-12-10T07:51:26;-1.60;97.38
71088;SHT31;58747;50.674;4.616;2022-12-10T07:53:53;-1.67;97.25
71088;SHT31;58747;50.674;4.616;2022-12-10T07:56:19;-1.62;97.28
71088;SHT31;58747;50.674;4.616;2022-12-10T07:58:45;-1.63;97.42
71088;SHT31;58747;50.674;4.616;2022-12-10T08:01:13;-1.56;97.41
71088;SHT31;58747;50.674;4.616;2022-12-10T08:03:39;-1.52;97.40
71088;SHT31;58747;50.674;4.616;2022-12-10T08:06:07;-0.94;99.39
71088;SHT31;58747;50.674;4.616;2022-12-10T08:08:33;-0.72;97.70
71088;SHT31;58747;50.674;4.616;2022-12-10T08:11:00;-0.60;94.72
71088;SHT31;58747;50.674;4.616;2022-12-10T08:13:26;-0.80;94.23
71088;SHT31;58747;50.674;4.616;2022-12-10T08:15:52;-1.04;94.89
71088;SHT31;58747;50.674;4.616;2022-12-10T08:18:17;-1.22;95.56
71088;SHT31;58747;50.674;4.616;2022-12-10T08:20:42;-1.28;96.03
71088;SHT31;58747;50.674;4.616;2022-12-10T08:23:08;-1.30;96.27
71088;SHT31;58747;50.674;4.616;2022-12-10T08:25:33;-1.41;96.51
71088;SHT31;58747;50.674;4.616;2022-12-10T08:27:58;-1.51;96.77
71088;SHT31;58747;50.674;4.616;2022-12-10T08:30:28;-1.44;96.76
71088;SHT31;58747;50.674;4.616;2022-12-10T08:32:53;-1.59;96.83
71088;SHT31;58747;50.674;4.616;2022-12-10T08:35:18;-1.60;97.06
71088;SHT31;58747;50.674;4.616;2022-12-10T08:37:43;-1.69;97.31
71088;SHT31;58747;50.674;4.616;2022-12-10T08:40:09;-1.66;97.47
71088;SHT31;58747;50.674;4.616;2022-12-10T08:42:35;-1.75;97.63
71088;SHT31;58747;50.674;4.616;2022-12-10T08:45:00;-1.77;98.29
71088;SHT31;58747;50.674;4.616;2022-12-10T08:47:27;-1.67;98.28
71088;SHT31;58747;50.674;4.616;2022-12-10T08:49:52;-1.55;98.12
71088;SHT31;58747;50.674;4.616;2022-12-10T08:52:17;-1.17;98.73
71088;SHT31;58747;50.674;4.616;2022-12-10T08:54:42;-0.93;96.93
71088;SHT31;58747;50.674;4.616;2022-12-10T08:57:08;-0.70;95.78
71088;SHT31;58747;50.674;4.616;2022-12-10T08:59:33;-0.52;94.80
71088;SHT31;58747;50.674;4.616;2022-12-10T09:01:59;-0.63;94.12
71088;SHT31;58747;50.674;4.616;2022-12-10T09:04:24;-0.52;94.31
71088;SHT31;58747;50.674;4.616;2022-12-10T09:06:49;-0.62;94.13
71088;SHT31;58747;50.674;4.616;2022-12-10T09:09:15;-0.90;94.99
71088;SHT31;58747;50.674;4.616;2022-12-10T09:11:41;-1.01;95.19
71088;SHT31;58747;50.674;4.616;2022-12-10T09:14:06;-1.00;95.26
71088;SHT31;58747;50.674;4.616;2022-12-10T09:16:33;-1.11;95.54
71088;SHT31;58747;50.674;4.616;2022-12-10T09:18:59;-1.25;95.92
71088;SHT31;58747;50.674;4.616;2022-12-10T09:21:25;-1.25;96.54
71088;SHT31;58747;50.674;4.616;2022-12-10T09:23:51;-1.24;96.45
71088;SHT31;58747;50.674;4.616;2022-12-10T09:26:18;-0.86;95.26
71088;SHT31;58747;50.674;4.616;2022-12-10T09:28:45;-1.05;95.01
71088;SHT31;58747;50.674;4.616;2022-12-10T09:31:11;-1.14;95.46
71088;SHT31;58747;50.674;4.616;2022-12-10T09:33:37;-1.31;95.77
71088;SHT31;58747;50.674;4.616;2022-12-10T09:36:04;-1.21;96.12
71088;SHT31;58747;50.674;4.616;2022-12-10T09:38:33;-1.31;96.57
71088;SHT31;58747;50.674;4.616;2022-12-10T09:52:08;-1.21;96.83
71088;SHT31;58747;50.674;4.616;2022-12-10T09:54:57;-1.08;96.66
71088;SHT31;58747;50.674;4.616;2022-12-10T09:57:30;-1.05;96.14
71088;SHT31;58747;50.674;4.616;2022-12-10T10:00:00;-1.09;95.85
71088;SHT31;58747;50.674;4.616;2022-12-10T10:02:29;-1.27;95.71
71088;SHT31;58747;50.674;4.616;2022-12-10T10:05:14;-1.17;96.15
71088;SHT31;58747;50.674;4.616;2022-12-10T10:07:55;-1.28;95.75
71088;SHT31;58747;50.674;4.616;2022-12-10T10:12:47;-1.38;96.48
71088;SHT31;58747;50.674;4.616;2022-12-10T10:15:16;-1.21;96.25
71088;SHT31;58747;50.674;4.616;2022-12-10T10:17:44;-1.22;96.43
71088;SHT31;58747;50.674;4.616;2022-12-10T10:20:12;-1.24;96.39
71088;SHT31;58747;50.674;4.616;2022-12-10T10:22:39;-1.24;96.57
71088;SHT31;58747;50.674;4.616;2022-12-10T10:25:06;-1.32;96.93
71088;SHT31;58747;50.674;4.616;2022-12-10T10:27:37;-1.17;96.88
71088;SHT31;58747;50.674;4.616;2022-12-10T10:30:03;-1.17;96.47
71088;SHT31;58747;50.674;4.616;2022-12-10T10:35:01;-0.96;96.11
71088;SHT31;58747;50.674;4.616;2022-12-10T10:37:30;-1.07;95.84
71088;SHT31;58747;50.674;4.616;2022-12-10T10:39:57;-1.05;95.89
71088;SHT31;58747;50.674;4.616;2022-12-10T10:42:28;-1.04;96.06
71088;SHT31;58747;50.674;4.616;2022-12-10T10:44:58;-0.96;96.01
71088;SHT31;58747;50.674;4.616;2022-12-10T10:47:34;-1.07;95.88
71088;SHT31;58747;50.674;4.616;2022-12-10T10:50:04;-1.03;96.19
71088;SHT31;58747;50.674;4.616;2022-12-10T10:52:36;-1.03;95.88
71088;SHT31;58747;50.674;4.616;2022-12-10T10:55:02;-0.90;96.06
71088;SHT31;58747;50.674;4.616;2022-12-10T10:57:35;-1.00;96.01
71088;SHT31;58747;50.674;4.616;2022-12-10T11:00:17;-0.97;95.60
71088;SHT31;58747;50.674;4.616;2022-12-10T11:02:43;-0.98;95.52
71088;SHT31;58747;50.674;4.616;2022-12-10T11:05:25;-1.01;95.75
71088;SHT31;58747;50.674;4.616;2022-12-10T11:08:03;-0.97;96.17
71088;SHT31;58747;50.674;4.616;2022-12-10T11:10:30;-0.90;96.06
71088;SHT31;58747;50.674;4.616;2022-12-10T11:17:53;-1.00;96.11
71088;SHT31;58747;50.674;4.616;2022-12-10T11:20:33;-0.97;96.16
71088;SHT31;58747;50.674;4.616;2022-12-10T11:23:08;-0.94;96.39
71088;SHT31;58747;50.674;4.616;2022-12-10T11:26:00;-0.87;95.98
71088;SHT31;58747;50.674;4.616;2022-12-10T11:28:40;-0.94;95.93
71088;SHT31;58747;50.674;4.616;2022-12-10T11:31:27;-0.73;95.95
71088;SHT31;58747;50.674;4.616;2022-12-10T11:34:19;-0.67;95.76
71088;SHT31;58747;50.674;4.616;2022-12-10T11:40:01;-0.52;95.30
71088;SHT31;58747;50.674;4.616;2022-12-10T11:50:28;-0.42;94.68
71088;SHT31;58747;50.674;4.616;2022-12-10T11:53:21;-0.45;94.94
71088;SHT31;58747;50.674;4.616;2022-12-10T11:56:56;-0.45;95.01
71088;SHT31;58747;50.674;4.616;2022-12-10T12:01:25;-0.45;95.22
71088;SHT31;58747;50.674;4.616;2022-12-10T12:10:00;-0.55;96.08
71088;SHT31;58747;50.674;4.616;2022-12-10T12:15:03;-0.56;95.87
71088;SHT31;58747;50.674;4.616;2022-12-10T12:17:37;-0.49;95.75
71088;SHT31;58747;50.674;4.616;2022-12-10T12:23:33;-0.40;95.08
71088;SHT31;58747;50.674;4.616;2022-12-10T12:26:31;-0.40;95.73
71088;SHT31;58747;50.674;4.616;2022-12-10T12:31:38;-0.35;95.56
71088;SHT31;58747;50.674;4.616;2022-12-10T12:34:21;-0.38;95.90
71088;SHT31;58747;50.674;4.616;2022-12-10T12:36:49;-0.39;95.33
71088;SHT31;58747;50.674;4.616;2022-12-10T12:39:38;-0.49;95.03
71088;SHT31;58747;50.674;4.616;2022-12-10T12:42:29;-0.50;95.59
71088;SHT31;58747;50.674;4.616;2022-12-10T12:45:04;-0.50;95.69
71088;SHT31;58747;50.674;4.616;2022-12-10T12:47:49;-0.39;95.52
71088;SHT31;58747;50.674;4.616;2022-12-10T12:53:00;-0.42;95.98
71088;SHT31;58747;50.674;4.616;2022-12-10T12:55:32;-0.32;95.71
71088;SHT31;58747;50.674;4.616;2022-12-10T12:58:17;-0.28;95.67
71088;SHT31;58747;50.674;4.616;2022-12-10T13:00:48;-0.32;95.31
71088;SHT31;58747;50.674;4.616;2022-12-10T13:03:36;-0.39;95.33
71088;SHT31;58747;50.674;4.616;2022-12-10T13:06:22;-0.45;95.86
71088;SHT31;58747;50.674;4.616;2022-12-10T13:11:18;-0.45;95.98
71088;SHT31;58747;50.674;4.616;2022-12-10T13:14:04;-0.46;95.86
71088;SHT31;58747;50.674;4.616;2022-12-10T13:24:19;-0.39;96.17
71088;SHT31;58747;50.674;4.616;2022-12-10T13:33:02;-0.21;96.98
71088;SHT31;58747;50.674;4.616;2022-12-10T13:37:33;-0.18;95.93
71088;SHT31;58747;50.674;4.616;2022-12-10T13:42:44;-0.18;95.84
71088;SHT31;58747;50.674;4.616;2022-12-10T13:45:33;-0.28;96.29
71088;SHT31;58747;50.674;4.616;2022-12-10T13:48:28;-0.19;96.36
71088;SHT31;58747;50.674;4.616;2022-12-10T13:51:12;-0.09;96.22
71088;SHT31;58747;50.674;4.616;2022-12-10T13:54:11;-0.09;95.96
71088;SHT31;58747;50.674;4.616;2022-12-10T13:59:39;0.00;95.66
71088;SHT31;58747;50.674;4.616;2022-12-10T14:07:48;0.03;95.60
71088;SHT31;58747;50.674;4.616;2022-12-10T14:10:17;0.09;95.46
71088;SHT31;58747;50.674;4.616;2022-12-10T14:12:44;0.10;95.30
71088;SHT31;58747;50.674;4.616;2022-12-10T14:15:20;0.00;95.11
71088;SHT31;58747;50.674;4.616;2022-12-10T14:17:49;-0.02;95.37
71088;SHT31;58747;50.674;4.616;2022-12-10T14:20:22;-0.14;95.79
71088;SHT31;58747;50.674;4.616;2022-12-10T14:22:54;-0.09;95.94
71088;SHT31;58747;50.674;4.616;2022-12-10T14:25:44;-0.09;96.04
71088;SHT31;58747;50.674;4.616;2022-12-10T14:28:12;-0.08;96.11
71088;SHT31;58747;50.674;4.616;2022-12-10T14:30:43;-0.07;95.93
71088;SHT31;58747;50.674;4.616;2022-12-10T14:33:10;-0.09;95.97
71088;SHT31;58747;50.674;4.616;2022-12-10T14:35:38;-0.05;96.06
71088;SHT31;58747;50.674;4.616;2022-12-10T14:38:04;-0.01;95.74
71088;SHT31;58747;50.674;4.616;2022-12-10T14:40:39;-0.05;95.46
71088;SHT31;58747;50.674;4.616;2022-12-10T14:43:06;-0.07;95.82
71088;SHT31;58747;50.674;4.616;2022-12-10T14:45:49;-0.08;96.14
71088;SHT31;58747;50.674;4.616;2022-12-10T14:48:17;-0.12;96.09
71088;SHT31;58747;50.674;4.616;2022-12-10T14:50:45;-0.09;95.95
71088;SHT31;58747;50.674;4.616;2022-12-10T14:53:17;-0.11;96.10
71088;SHT31;58747;50.674;4.616;2022-12-10T14:55:45;-0.18;96.10
71088;SHT31;58747;50.674;4.616;2022-12-10T14:58:18;-0.11;96.27
71088;SHT31;58747;50.674;4.616;2022-12-10T15:00:46;-0.19;96.18
71088;SHT31;58747;50.674;4.616;2022-12-10T15:03:26;-0.17;96.45
71088;SHT31;58747;50.674;4.616;2022-12-10T15:06:01;-0.19;96.35
71088;SHT31;58747;50.674;4.616;2022-12-10T15:08:27;-0.26;96.55
71088;SHT31;58747;50.674;4.616;2022-12-10T15:10:58;-0.23;96.48
71088;SHT31;58747;50.674;4.616;2022-12-10T15:13:33;-0.19;96.55
71088;SHT31;58747;50.674;4.616;2022-12-10T15:15:59;-0.21;96.51
71088;SHT31;58747;50.674;4.616;2022-12-10T15:18:30;-0.25;96.66
71088;SHT31;58747;50.674;4.616;2022-12-10T15:21:15;-0.23;96.79
71088;SHT31;58747;50.674;4.616;2022-12-10T15:23:44;-0.29;96.83
71088;SHT31;58747;50.674;4.616;2022-12-10T15:26:19;-0.29;96.66
71088;SHT31;58747;50.674;4.616;2022-12-10T15:28:48;-0.29;96.68
71088;SHT31;58747;50.674;4.616;2022-12-10T15:31:22;-0.32;96.98
71088;SHT31;58747;50.674;4.616;2022-12-10T15:33:55;-0.38;96.96
71088;SHT31;58747;50.674;4.616;2022-12-10T15:36:32;-0.35;97.07
71088;SHT31;58747;50.674;4.616;2022-12-10T15:39:21;-0.39;97.13
71088;SHT31;58747;50.674;4.616;2022-12-10T15:41:49;-0.38;97.18
71088;SHT31;58747;50.674;4.616;2022-12-10T15:49:29;-0.40;97.54
71088;SHT31;58747;50.674;4.616;2022-12-10T15:51:55;-0.25;97.79
71088;SHT31;58747;50.674;4.616;2022-12-10T15:54:36;0.12;97.78
71088;SHT31;58747;50.674;4.616;2022-12-10T15:57:32;0.56;96.19
71088;SHT31;58747;50.674;4.616;2022-12-10T16:00:08;0.60;94.53
71088;SHT31;58747;50.674;4.616;2022-12-10T16:02:42;0.54;95.32
71088;SHT31;58747;50.674;4.616;2022-12-10T16:05:26;0.47;94.04
71088;SHT31;58747;50.674;4.616;2022-12-10T16:07:53;0.43;93.92
71088;SHT31;58747;50.674;4.616;2022-12-10T16:10:21;0.65;94.89
71088;SHT31;58747;50.674;4.616;2022-12-10T16:12:49;0.65;94.49
71088;SHT31;58747;50.674;4.616;2022-12-10T16:15:19;0.74;94.23
71088;SHT31;58747;50.674;4.616;2022-12-10T16:17:45;0.70;93.34
71088;SHT31;58747;50.674;4.616;2022-12-10T16:22:46;0.98;93.24
71088;SHT31;58747;50.674;4.616;2022-12-10T16:25:13;0.46;93.23
71088;SHT31;58747;50.674;4.616;2022-12-10T16:27:39;0.16;94.42
71088;SHT31;58747;50.674;4.616;2022-12-10T16:30:35;-0.01;95.21
71088;SHT31;58747;50.674;4.616;2022-12-10T16:33:02;-0.14;95.98
71088;SHT31;58747;50.674;4.616;2022-12-10T16:35:28;-0.19;96.31
71088;SHT31;58747;50.674;4.616;2022-12-10T16:37:53;-0.19;96.44
71088;SHT31;58747;50.674;4.616;2022-12-10T16:40:22;-0.25;96.65
71088;SHT31;58747;50.674;4.616;2022-12-10T16:42:48;-0.32;96.88
71088;SHT31;58747;50.674;4.616;2022-12-10T16:45:29;-0.39;97.16
71088;SHT31;58747;50.674;4.616;2022-12-10T16:47:56;-0.43;97.33
71088;SHT31;58747;50.674;4.616;2022-12-10T16:50:22;-0.40;97.41
71088;SHT31;58747;50.674;4.616;2022-12-10T16:52:47;-0.35;97.39
71088;SHT31;58747;50.674;4.616;2022-12-10T16:55:16;-0.35;97.36
71088;SHT31;58747;50.674;4.616;2022-12-10T16:57:43;-0.29;97.29
71088;SHT31;58747;50.674;4.616;2022-12-10T17:00:15;-0.30;97.37
71088;SHT31;58747;50.674;4.616;2022-12-10T17:02:42;-0.32;97.28
71088;SHT31;58747;50.674;4.616;2022-12-10T17:05:24;-0.17;97.93
71088;SHT31;58747;50.674;4.616;2022-12-10T17:07:51;-0.18;97.26
71088;SHT31;58747;50.674;4.616;2022-12-10T17:10:16;-0.15;97.06
71088;SHT31;58747;50.674;4.616;2022-12-10T17:12:42;-0.15;97.12
71088;SHT31;58747;50.674;4.616;2022-12-10T17:15:10;-0.12;97.09
71088;SHT31;58747;50.674;4.616;2022-12-10T17:17:36;-0.11;97.15
71088;SHT31;58747;50.674;4.616;2022-12-10T17:20:05;-0.07;97.12
71088;SHT31;58747;50.674;4.616;2022-12-10T17:22:31;-0.14;97.14
71088;SHT31;58747;50.674;4.616;2022-12-10T17:24:56;-0.18;97.31
71088;SHT31;58747;50.674;4.616;2022-12-10T17:27:21;-0.21;97.59
71088;SHT31;58747;50.674;4.616;2022-12-10T17:29:47;-0.18;97.81
71088;SHT31;58747;50.674;4.616;2022-12-10T17:32:20;-0.14;97.77
71088;SHT31;58747;50.674;4.616;2022-12-10T17:34:45;-0.09;97.62
71088;SHT31;58747;50.674;4.616;2022-12-10T17:37:13;-0.07;97.57
71088;SHT31;58747;50.674;4.616;2022-12-10T17:39:40;-0.04;97.31
71088;SHT31;58747;50.674;4.616;2022-12-10T17:42:05;-0.07;97.30
71088;SHT31;58747;50.674;4.616;2022-12-10T17:44:33;-0.02;97.41
71088;SHT31;58747;50.674;4.616;2022-12-10T17:46:59;0.00;97.31
71088;SHT31;58747;50.674;4.616;2022-12-10T17:49:24;-0.01;97.37
71088;SHT31;58747;50.674;4.616;2022-12-10T17:51:49;-0.04;97.48